createdAt,value
2019-02-11T00:00:33.001Z,46.17
2019-02-11T00:04:03.233Z,39.65
2019-02-11T00:07:33.232Z,34.66
2019-02-11T00:11:03.482Z,34.58
2019-02-11T00:14:33.698Z,34.77
2019-02-11T00:18:03.847Z,41.25
2019-02-11T00:21:34.016Z,37.33
2019-02-11T00:25:04.295Z,24.65
2019-02-11T00:28:34.355Z,37.6
2019-02-11T00:32:04.469Z,34.02
2019-02-11T00:35:34.594Z,41.38
2019-02-11T00:39:05.673Z,40.54
2019-02-11T00:42:35.831Z,34.24
2019-02-11T00:46:06.190Z,36.45
2019-02-11T00:49:36.391Z,45.27
2019-02-11T00:53:06.598Z,37.45
2019-02-11T00:56:37.538Z,38.89
2019-02-11T01:00:09.658Z,38.8
2019-02-11T01:03:39.746Z,37.41
2019-02-11T01:07:10.025Z,33.85
2019-02-11T01:10:40.195Z,35.91
2019-02-11T01:14:10.324Z,36.62
2019-02-11T01:17:40.433Z,32.42
2019-02-11T01:21:10.454Z,34.33
2019-02-11T01:24:40.440Z,24.95
2019-02-11T01:28:10.590Z,28.15
2019-02-11T01:31:40.738Z,34.04
2019-02-11T01:35:10.879Z,36.84
2019-02-11T01:38:40.848Z,39.94
2019-02-11T01:42:11.007Z,40.06
2019-02-11T01:45:41.106Z,36.21
2019-02-11T01:49:11.285Z,35.81
2019-02-11T01:52:41.306Z,34.96
2019-02-11T01:56:11.562Z,32.91
2019-02-11T01:59:42.712Z,30.38
2019-02-11T02:00:15.713Z,43.67
2019-02-11T02:03:45.800Z,22.99
2019-02-11T02:07:15.819Z,23.06
2019-02-11T02:10:46.079Z,35.56
2019-02-11T02:14:16.098Z,37.42
2019-02-11T02:17:46.246Z,38.79
2019-02-11T02:21:16.405Z,29.91
2019-02-11T02:24:46.644Z,35.32
2019-02-11T02:28:16.715Z,34.51
2019-02-11T02:31:46.854Z,34.69
2019-02-11T02:35:16.898Z,40.95
2019-02-11T02:38:47.102Z,35.85
2019-02-11T02:42:17.152Z,34.74
2019-02-11T02:45:47.322Z,35.19
2019-02-11T02:49:17.406Z,40.45
2019-02-11T02:52:47.499Z,33.39
2019-02-11T02:56:17.646Z,13.14
2019-02-11T02:59:48.787Z,36.52
2019-02-11T03:03:18.856Z,39.2
2019-02-11T03:06:49.102Z,33.31
2019-02-11T03:10:19.216Z,39.66
2019-02-11T03:13:49.492Z,24.65
2019-02-11T03:17:19.674Z,25.89
2019-02-11T03:20:49.811Z,36.01
2019-02-11T03:24:19.852Z,28.68
2019-02-11T03:27:49.978Z,29.66
2019-02-11T03:31:19.999Z,34.34
2019-02-11T03:34:50.249Z,23.77
2019-02-11T03:38:20.407Z,30.86
2019-02-11T03:41:50.795Z,29.67
2019-02-11T03:45:21.015Z,31.99
2019-02-11T03:48:51.214Z,29.86
2019-02-11T03:52:21.293Z,29.47
2019-02-11T03:55:51.572Z,29.82
2019-02-11T03:59:21.592Z,7.46
2019-02-11T04:00:15.949Z,33.36
2019-02-11T04:03:46.100Z,35.08
2019-02-11T04:07:16.150Z,33.49
2019-02-11T04:10:46.349Z,30.96
2019-02-11T04:14:24.598Z,30.16
2019-02-11T04:17:55.285Z,38.09
2019-02-11T04:21:25.296Z,36.55
2019-02-11T04:24:55.336Z,37.01
2019-02-11T04:28:25.475Z,37.19
2019-02-11T04:31:55.754Z,32.49
2019-02-11T04:35:25.872Z,39.76
2019-02-11T04:38:56.031Z,41.16
2019-02-11T04:42:26.240Z,34.73
2019-02-11T04:45:56.380Z,32.24
2019-02-11T04:49:26.541Z,31.05
2019-02-11T04:52:56.610Z,35.17
2019-02-11T04:56:26.747Z,35.89
2019-02-11T04:59:56.936Z,35.83
2019-02-11T05:03:27.995Z,44.58
2019-02-11T05:06:58.146Z,42.58
2019-02-11T05:10:28.295Z,37.81
2019-02-11T05:13:58.383Z,29.65
2019-02-11T05:17:28.483Z,35.21
2019-02-11T05:20:58.563Z,44.09
2019-02-11T05:24:28.541Z,41.42
2019-02-11T05:27:58.702Z,41.3
2019-02-11T05:31:28.744Z,43.11
2019-02-11T05:34:58.889Z,39.76
2019-02-11T05:38:29.007Z,34.35
2019-02-11T05:41:59.090Z,44
2019-02-11T05:45:29.156Z,43.9
2019-02-11T05:48:59.350Z,45.29
2019-02-11T05:52:29.504Z,43.42
2019-02-11T05:55:59.726Z,31.61
2019-02-11T05:59:29.802Z,41.16
2019-02-11T06:00:17.823Z,43.2
2019-02-11T06:03:48.952Z,52.7
2019-02-11T06:07:19.005Z,42.44
2019-02-11T06:10:49.289Z,43.99
2019-02-11T06:14:19.428Z,51.51
2019-02-11T06:17:49.679Z,44.41
2019-02-11T06:21:19.709Z,34.79
2019-02-11T06:24:49.827Z,40.64
2019-02-11T06:28:19.895Z,47.75
2019-02-11T06:31:50.090Z,37.52
2019-02-11T06:35:20.237Z,42.06
2019-02-11T06:38:50.333Z,40.38
2019-02-11T06:42:20.502Z,44.25
2019-02-11T06:45:50.873Z,37.44
2019-02-11T06:49:21.052Z,41.91
2019-02-11T06:52:51.290Z,36.46
2019-02-11T06:56:21.419Z,38.45
2019-02-11T06:59:51.546Z,48.2
2019-02-11T07:03:21.677Z,42.71
2019-02-11T07:06:52.684Z,43.56
2019-02-11T07:10:22.798Z,34.4
2019-02-11T07:13:53.005Z,17.38
2019-02-11T07:17:23.198Z,32.15
2019-02-11T07:20:53.375Z,33.58
2019-02-11T07:24:23.414Z,38.61
2019-02-11T07:27:53.562Z,11.09
2019-02-11T07:31:23.613Z,35.55
2019-02-11T07:34:53.716Z,38.47
2019-02-11T07:38:23.921Z,21.79
2019-02-11T07:42:16.860Z,38.67
2019-02-11T07:46:06.904Z,27.91
2019-02-11T07:49:37.058Z,33.26
2019-02-11T07:53:07.109Z,41.85
2019-02-11T07:56:37.187Z,35.94
2019-02-11T08:00:13.335Z,39.01
2019-02-11T08:03:43.466Z,41.58
2019-02-11T08:07:14.505Z,36.67
2019-02-11T08:10:44.734Z,37.91
2019-02-11T08:14:14.874Z,35.27
2019-02-11T08:17:46.782Z,29.48
2019-02-11T08:21:17.003Z,36.48
2019-02-11T08:24:47.162Z,34.69
2019-02-11T08:28:19.615Z,33.06
2019-02-11T08:31:49.940Z,37.58
2019-02-11T08:35:20.018Z,34.44
2019-02-11T08:38:50.228Z,34.33
2019-02-11T08:42:20.271Z,33.98
2019-02-11T08:45:50.359Z,29.04
2019-02-11T08:49:20.497Z,41.47
2019-02-11T08:52:50.647Z,34.81
2019-02-11T08:56:20.806Z,40.15
2019-02-11T08:59:50.894Z,42.49
2019-02-11T09:03:20.921Z,40.91
2019-02-11T09:06:51.102Z,33.3
2019-02-11T09:10:22.202Z,38.54
2019-02-11T09:13:52.372Z,36.51
2019-02-11T09:17:22.422Z,28.2
2019-02-11T09:20:52.660Z,39.08
2019-02-11T09:24:22.759Z,44.35
2019-02-11T09:27:52.951Z,38.15
2019-02-11T09:31:23.089Z,37.76
2019-02-11T09:34:53.287Z,38.59
2019-02-11T09:38:23.426Z,18.1
2019-02-11T09:41:53.531Z,36.14
2019-02-11T09:45:24.296Z,18.01
2019-02-11T09:48:54.616Z,12.95
2019-02-11T09:52:24.696Z,39.91
2019-02-11T09:55:54.833Z,33.14
2019-02-11T09:59:24.925Z,37.29
2019-02-11T10:00:16.372Z,43.22
2019-02-11T10:03:46.512Z,36.12
2019-02-11T10:07:16.662Z,37.96
2019-02-11T10:10:47.831Z,29.4
2019-02-11T10:14:17.922Z,40
2019-02-11T10:17:48.100Z,31.59
2019-02-11T10:21:18.208Z,32.64
2019-02-11T10:24:48.309Z,39.52
2019-02-11T10:28:18.388Z,36.44
2019-02-11T10:31:48.478Z,35.3
2019-02-11T10:35:18.699Z,46.26
2019-02-11T10:38:48.757Z,37.82
2019-02-11T10:42:18.906Z,31.65
2019-02-11T10:45:49.036Z,33.01
2019-02-11T10:49:19.165Z,38.59
2019-02-11T10:52:49.324Z,38.62
2019-02-11T10:56:19.433Z,35.88
2019-02-11T10:59:49.553Z,47.91
2019-02-11T11:03:19.713Z,34.25
2019-02-11T11:06:49.863Z,40.74
2019-02-11T11:10:24.500Z,39.35
2019-02-11T11:13:55.873Z,30.34
2019-02-11T11:17:25.951Z,40.02
2019-02-11T11:20:56.063Z,33.42
2019-02-11T11:24:26.510Z,30.48
2019-02-11T11:27:56.830Z,28.62
2019-02-11T11:31:26.924Z,41.29
2019-02-11T11:34:57.019Z,22.8
2019-02-11T11:38:27.168Z,34.64
2019-02-11T11:41:57.377Z,8.16
2019-02-11T11:45:27.924Z,33.57
2019-02-11T11:48:58.196Z,35.64
2019-02-11T11:52:28.333Z,34.31
2019-02-11T11:56:02.127Z,25
2019-02-11T11:59:33.135Z,30.84
2019-02-11T12:00:20.797Z,38.51
2019-02-11T12:03:51.077Z,28.82
2019-02-11T12:07:21.269Z,28.81
2019-02-11T12:10:51.606Z,39.16
2019-02-11T12:14:22.667Z,40.16
2019-02-11T12:17:52.959Z,48.54
2019-02-11T12:21:23.015Z,43.21
2019-02-11T12:24:53.232Z,44.79
2019-02-11T12:28:23.440Z,47.61
2019-02-11T12:31:53.607Z,47.19
2019-02-11T12:35:23.766Z,42.99
2019-02-11T12:38:53.787Z,55.28
2019-02-11T12:42:23.868Z,41.89
2019-02-11T12:45:53.968Z,47.42
2019-02-11T12:49:24.183Z,46.09
2019-02-11T12:52:54.349Z,41.6
2019-02-11T12:56:24.367Z,51.19
2019-02-11T12:59:54.478Z,51.65
2019-02-11T13:03:24.599Z,48.2
2019-02-11T13:06:54.711Z,54.4
2019-02-11T13:10:25.271Z,45
2019-02-11T13:13:55.472Z,47.56
2019-02-11T13:17:33.733Z,50.66
2019-02-11T13:21:05.148Z,49.24
2019-02-11T13:24:35.180Z,55.56
2019-02-11T13:28:05.305Z,49.06
2019-02-11T13:31:35.489Z,49.49
2019-02-11T13:35:05.837Z,42.88
2019-02-11T13:38:35.939Z,46.92
2019-02-11T13:42:06.147Z,57.86
2019-02-11T13:45:36.276Z,50.5
2019-02-11T13:49:07.729Z,48.01
2019-02-11T13:52:37.742Z,51.38
2019-02-11T13:56:07.901Z,49.95
2019-02-11T13:59:38.177Z,59.49
2019-02-11T14:00:21.114Z,61.34
2019-02-11T14:03:51.323Z,43.1
2019-02-11T14:07:21.430Z,45.09
2019-02-11T14:10:51.698Z,46.26
2019-02-11T14:14:29.309Z,43.49
2019-02-11T14:18:13.382Z,47.39
2019-02-11T14:21:44.779Z,38.4
2019-02-11T14:25:14.979Z,36.86
2019-02-11T14:28:45.099Z,35.6
2019-02-11T14:32:15.263Z,29.28
2019-02-11T14:35:45.478Z,41.96
2019-02-11T14:39:15.607Z,33.04
2019-02-11T14:42:45.745Z,33.08
2019-02-11T14:46:15.757Z,35.27
2019-02-11T14:49:45.912Z,28.22
2019-02-11T14:53:15.986Z,38.9
2019-02-11T14:56:46.152Z,47.47
2019-02-11T15:00:18.307Z,44.55
2019-02-11T15:03:48.451Z,68.21
2019-02-11T15:07:18.629Z,43.6
2019-02-11T15:10:48.778Z,58.97
2019-02-11T15:14:18.947Z,59.94
2019-02-11T15:17:48.978Z,32.75
2019-02-11T15:21:20.056Z,43.81
2019-02-11T15:24:50.114Z,50.78
2019-02-11T15:28:20.263Z,51.24
2019-02-11T15:31:50.431Z,46.2
2019-02-11T15:35:20.542Z,42.33
2019-02-11T15:38:50.599Z,46.73
2019-02-11T15:42:20.728Z,60.16
2019-02-11T15:45:50.797Z,57.36
2019-02-11T15:49:20.946Z,42.12
2019-02-11T15:52:51.139Z,38.29
2019-02-11T15:56:21.220Z,47.91
2019-02-11T15:59:51.332Z,42.03
2019-02-11T16:00:18.152Z,43.64
2019-02-11T16:03:48.291Z,36.16
2019-02-11T16:07:18.376Z,32.38
2019-02-11T16:10:48.529Z,31.09
2019-02-11T16:14:18.538Z,29.61
2019-02-11T16:17:48.576Z,24.21
2019-02-11T16:21:18.765Z,46.26
2019-02-11T16:24:49.084Z,35.38
2019-02-11T16:28:19.313Z,29.47
2019-02-11T16:31:49.392Z,36.99
2019-02-11T16:35:19.561Z,37.66
2019-02-11T16:38:49.763Z,40.15
2019-02-11T16:42:19.900Z,42.33
2019-02-11T16:45:50.059Z,42.38
2019-02-11T16:49:20.146Z,29.39
2019-02-11T16:52:50.245Z,28.17
2019-02-11T16:56:20.314Z,22.06
2019-02-11T16:59:50.383Z,16.85
2019-02-11T17:03:20.472Z,20.64
2019-02-11T17:06:50.583Z,19.98
2019-02-11T17:10:20.660Z,18.5
2019-02-11T17:13:50.728Z,13.52
2019-02-11T17:17:20.907Z,8.84
2019-02-11T17:20:51.007Z,12.24
2019-02-11T17:24:21.096Z,17.43
2019-02-11T17:27:52.064Z,13.89
2019-02-11T17:31:22.193Z,19.43
2019-02-11T17:34:52.372Z,12.34
2019-02-11T17:38:22.450Z,13.71
2019-02-11T17:41:52.554Z,16.56
2019-02-11T17:45:23.399Z,14.22
2019-02-11T17:48:53.637Z,12.11
2019-02-11T17:52:23.826Z,12.2
2019-02-11T17:55:53.977Z,11.54
2019-02-11T17:59:24.038Z,14.99
2019-02-11T18:00:27.301Z,12.74
2019-02-11T18:03:57.375Z,12.79
2019-02-11T18:07:27.533Z,4.11
2019-02-11T18:10:57.672Z,10.81
2019-02-11T18:14:27.664Z,9.86
2019-02-11T18:17:57.788Z,9.93
2019-02-11T18:21:27.816Z,13.52
2019-02-11T18:24:57.925Z,13.62
2019-02-11T18:28:29.065Z,12.55
2019-02-11T18:31:59.194Z,11.28
2019-02-11T18:35:29.342Z,13.85
2019-02-11T18:38:59.441Z,9.03
2019-02-11T18:42:29.632Z,12.96
2019-02-11T18:45:59.859Z,11.39
2019-02-11T18:49:34.562Z,16.54
2019-02-11T18:53:05.039Z,10.53
2019-02-11T18:56:35.255Z,11.76
2019-02-11T19:00:05.904Z,11.99
2019-02-11T19:03:36.046Z,15.05
2019-02-11T19:07:06.231Z,12.39
2019-02-11T19:10:36.444Z,21.73
2019-02-11T19:14:06.569Z,17.66
2019-02-11T19:17:36.988Z,16.17
2019-02-11T19:21:07.067Z,12.9
2019-02-11T19:24:37.175Z,5.67
2019-02-11T19:28:07.374Z,16.14
2019-02-11T19:31:38.353Z,7.86
2019-02-11T19:35:08.502Z,3.86
2019-02-11T19:38:38.621Z,16.43
2019-02-11T19:42:08.840Z,15.44
2019-02-11T19:45:38.898Z,14.44
2019-02-11T19:49:08.997Z,14.61
2019-02-11T19:52:38.968Z,19.83
2019-02-11T19:56:09.185Z,12.66
2019-02-11T19:59:39.263Z,14.88
2019-02-11T20:00:17.903Z,12.97
2019-02-11T20:03:48.002Z,9.88
2019-02-11T20:07:18.051Z,10.98
2019-02-11T20:10:48.190Z,10.82
2019-02-11T20:14:18.189Z,11.91
2019-02-11T20:17:48.378Z,12.64
2019-02-11T20:21:18.506Z,10.08
2019-02-11T20:24:48.695Z,11.07
2019-02-11T20:28:18.737Z,11.35
2019-02-11T20:31:49.868Z,12.22
2019-02-11T20:35:20.012Z,9.31
2019-02-11T20:38:50.180Z,11.71
2019-02-11T20:42:20.319Z,11.66
2019-02-11T20:45:50.480Z,10.66
2019-02-11T20:49:20.586Z,10.99
2019-02-11T20:52:50.695Z,12.36
2019-02-11T20:56:20.884Z,9.68
2019-02-11T20:59:51.023Z,8.59
2019-02-11T21:03:21.094Z,11.75
2019-02-11T21:06:51.300Z,4.19
2019-02-11T21:10:21.484Z,7.4
2019-02-11T21:13:51.668Z,8.88
2019-02-11T21:17:21.791Z,9.25
2019-02-11T21:20:51.895Z,8.01
2019-02-11T21:24:22.015Z,8.8
2019-02-11T21:27:52.104Z,9.84
2019-02-11T21:31:22.202Z,7.76
2019-02-11T21:34:53.271Z,11.78
2019-02-11T21:38:23.400Z,10.7
2019-02-11T21:41:53.539Z,7.47
2019-02-11T21:45:23.622Z,9.18
2019-02-11T21:48:53.763Z,12.46
2019-02-11T21:52:24.011Z,12.46
2019-02-11T21:55:54.187Z,6.34
2019-02-11T21:59:24.203Z,6.12
2019-02-11T22:00:17.132Z,11.79
2019-02-11T22:03:47.231Z,4.76
2019-02-11T22:07:17.390Z,13.95
2019-02-11T22:10:47.490Z,10.89
2019-02-11T22:14:17.543Z,9.45
2019-02-11T22:17:47.549Z,15.35
2019-02-11T22:21:17.583Z,10.04
2019-02-11T22:24:47.877Z,7.88
2019-02-11T22:28:17.933Z,15.68
2019-02-11T22:31:48.052Z,8.07
2019-02-11T22:35:19.071Z,9.16
2019-02-11T22:38:49.169Z,9.97
2019-02-11T22:42:19.288Z,8.65
2019-02-11T22:45:49.467Z,7.65
2019-02-11T22:49:19.606Z,9.39
2019-02-11T22:52:49.711Z,7.79
2019-02-11T22:56:19.903Z,10.14
2019-02-11T22:59:50.127Z,11.15
2019-02-11T23:03:20.252Z,13.72
2019-02-11T23:06:50.489Z,10.25
2019-02-11T23:10:20.668Z,9.55
2019-02-11T23:13:50.763Z,11.84
2019-02-11T23:17:20.863Z,10.36
2019-02-11T23:20:52.301Z,10.64
2019-02-11T23:24:22.420Z,7.91
2019-02-11T23:27:52.633Z,15.14
2019-02-11T23:31:22.672Z,13.05
2019-02-11T23:34:52.776Z,7.94
2019-02-11T23:38:23.964Z,13.8
2019-02-11T23:41:54.138Z,9.94
2019-02-11T23:45:24.122Z,11.79
2019-02-11T23:48:54.326Z,8.14
2019-02-11T23:52:24.335Z,12.7
2019-02-11T23:55:54.424Z,17.35
2019-02-11T23:59:24.578Z,8.75
